createdAt,value
2022-11-13T00:00:46.423Z,3.08
2022-11-13T00:01:46.383Z,3.10
2022-11-13T00:02:46.410Z,3.10
2022-11-13T00:03:46.354Z,3.10
2022-11-13T00:04:46.365Z,3.08
2022-11-13T00:05:46.353Z,3.03
2022-11-13T00:06:46.332Z,3.00
2022-11-13T00:07:46.310Z,2.99
2022-11-13T00:08:46.302Z,3.02
2022-11-13T00:09:46.292Z,3.00
2022-11-13T00:10:46.290Z,3.00
2022-11-13T00:11:46.259Z,2.96
2022-11-13T00:12:46.251Z,2.90
2022-11-13T00:13:46.234Z,2.90
2022-11-13T00:14:46.272Z,2.85
2022-11-13T00:15:46.210Z,2.85
2022-11-13T00:16:46.210Z,2.89
2022-11-13T00:17:46.182Z,2.81
2022-11-13T00:18:46.170Z,2.84
2022-11-13T00:19:46.164Z,2.78
2022-11-13T00:20:46.149Z,2.71
2022-11-13T00:21:46.149Z,2.72
2022-11-13T00:22:46.132Z,2.66
2022-11-13T00:23:46.099Z,2.60
2022-11-13T00:24:46.107Z,2.56
2022-11-13T00:25:46.087Z,2.60
2022-11-13T00:26:46.082Z,2.59
2022-11-13T00:27:46.059Z,2.60
2022-11-13T00:28:46.038Z,2.60
2022-11-13T00:29:46.044Z,2.59
2022-11-13T00:30:46.017Z,2.52
2022-11-13T00:31:46.028Z,2.53
2022-11-13T00:32:46.001Z,2.49
2022-11-13T00:34:09.124Z,2.48
2022-11-13T00:34:48.352Z,2.43
2022-11-13T00:35:45.977Z,2.38
2022-11-13T00:36:45.943Z,2.38
2022-11-13T00:37:45.929Z,2.36
2022-11-13T00:38:45.915Z,2.34
2022-11-13T00:39:45.922Z,2.36
2022-11-13T00:40:45.886Z,2.36
2022-11-13T00:41:45.875Z,2.35
2022-11-13T00:42:45.871Z,2.35
2022-11-13T00:43:45.852Z,2.30
2022-11-13T00:44:45.843Z,2.31
2022-11-13T00:45:45.835Z,2.30
2022-11-13T00:46:45.816Z,2.31
2022-11-13T00:47:45.804Z,2.30
2022-11-13T00:48:45.793Z,2.28
2022-11-13T00:49:45.764Z,2.27
2022-11-13T00:50:45.774Z,2.28
2022-11-13T00:51:45.743Z,2.27
2022-11-13T00:52:45.733Z,2.28
2022-11-13T00:53:45.733Z,2.30
2022-11-13T00:54:45.701Z,2.27
2022-11-13T00:55:45.716Z,2.27
2022-11-13T00:56:45.682Z,2.23
2022-11-13T00:57:45.692Z,2.23
2022-11-13T00:58:45.655Z,2.21
2022-11-13T00:59:45.650Z,2.18
2022-11-13T01:00:45.661Z,2.14
2022-11-13T01:01:45.664Z,2.14
2022-11-13T01:02:45.600Z,2.16
2022-11-13T01:03:45.591Z,2.17
2022-11-13T01:04:45.571Z,2.17
2022-11-13T01:05:45.584Z,2.16
2022-11-13T01:06:45.578Z,2.12
2022-11-13T01:07:45.539Z,2.12
2022-11-13T01:08:45.533Z,2.07
2022-11-13T01:09:45.517Z,2.10
2022-11-13T01:10:48.788Z,2.10
2022-11-13T01:11:46.478Z,2.10
2022-11-13T01:12:45.470Z,2.12
2022-11-13T01:13:45.467Z,2.12
2022-11-13T01:14:45.447Z,2.17
2022-11-13T01:15:45.457Z,2.17
2022-11-13T01:16:45.426Z,2.18
2022-11-13T01:17:45.405Z,2.17
2022-11-13T01:18:45.398Z,2.16
2022-11-13T01:19:45.395Z,2.09
2022-11-13T01:20:45.387Z,2.10
2022-11-13T01:21:45.353Z,2.06
2022-11-13T01:22:45.346Z,2.07
2022-11-13T01:23:45.325Z,2.12
2022-11-13T01:24:45.327Z,2.12
2022-11-13T01:25:45.336Z,2.14
2022-11-13T01:26:45.298Z,2.05
2022-11-13T01:27:45.286Z,2.06
2022-11-13T01:28:45.275Z,2.02
2022-11-13T01:29:45.254Z,2.03
2022-11-13T01:30:45.265Z,2.07
2022-11-13T01:31:45.223Z,2.09
2022-11-13T01:32:45.224Z,2.09
2022-11-13T01:33:45.198Z,2.09
2022-11-13T01:34:45.204Z,2.06
2022-11-13T01:35:45.193Z,2.05
2022-11-13T01:36:45.163Z,2.05
2022-11-13T01:37:45.160Z,2.05
2022-11-13T01:38:45.191Z,2.00
2022-11-13T01:39:45.131Z,1.99
2022-11-13T01:40:45.133Z,1.99
2022-11-13T01:41:45.094Z,1.93
2022-11-13T01:42:45.113Z,1.88
2022-11-13T01:43:45.071Z,1.86
2022-11-13T01:44:45.062Z,1.86
2022-11-13T01:45:45.063Z,1.80
2022-11-13T01:46:45.050Z,1.79
2022-11-13T01:47:45.029Z,1.76
2022-11-13T01:48:45.018Z,1.76
2022-11-13T01:49:45.008Z,1.72
2022-11-13T01:50:45.002Z,1.69
2022-11-13T01:51:44.979Z,1.65
2022-11-13T01:52:44.976Z,1.59
2022-11-13T01:53:44.961Z,1.59
2022-11-13T01:54:44.938Z,1.59
2022-11-13T01:55:44.950Z,1.58
2022-11-13T01:56:44.909Z,1.54
2022-11-13T01:57:44.899Z,1.51
2022-11-13T01:58:44.886Z,1.51
2022-11-13T01:59:44.860Z,1.52
2022-11-13T02:00:44.868Z,1.52
2022-11-13T02:01:44.875Z,1.52
2022-11-13T02:02:44.826Z,1.51
2022-11-13T02:03:44.806Z,1.55
2022-11-13T02:04:44.796Z,1.55
2022-11-13T02:05:44.808Z,1.58
2022-11-13T02:06:44.794Z,1.51
2022-11-13T02:07:44.767Z,1.50
2022-11-13T02:08:44.748Z,1.50
2022-11-13T02:09:44.736Z,1.52
2022-11-13T02:10:44.735Z,1.62
2022-11-13T02:11:44.715Z,1.60
2022-11-13T02:12:44.708Z,1.59
2022-11-13T02:13:44.714Z,1.62
2022-11-13T02:14:44.684Z,1.58
2022-11-13T02:15:44.680Z,1.59
2022-11-13T02:16:44.654Z,1.54
2022-11-13T02:17:44.632Z,1.42
2022-11-13T02:18:44.624Z,1.42
2022-11-13T02:19:44.604Z,1.41
2022-11-13T02:20:44.621Z,1.34
2022-11-13T02:21:44.590Z,1.32
2022-11-13T02:22:44.606Z,1.32
2022-11-13T02:23:44.545Z,1.32
2022-11-13T02:24:45.495Z,1.36
2022-11-13T02:25:44.542Z,1.37
2022-11-13T02:26:44.518Z,1.34
2022-11-13T02:27:44.498Z,1.33
2022-11-13T02:28:44.479Z,1.29
2022-11-13T02:29:44.469Z,1.26
2022-11-13T02:30:44.476Z,1.23
2022-11-13T02:31:44.433Z,1.18
2022-11-13T02:32:44.439Z,1.15
2022-11-13T02:33:44.410Z,1.15
2022-11-13T02:34:44.407Z,1.15
2022-11-13T02:35:44.401Z,1.14
2022-11-13T02:36:44.377Z,1.08
2022-11-13T02:37:44.366Z,1.06
2022-11-13T02:38:44.387Z,1.06
2022-11-13T02:39:44.348Z,1.05
2022-11-13T02:40:44.348Z,1.04
2022-11-13T02:41:44.330Z,1.08
2022-11-13T02:42:44.297Z,1.08
2022-11-13T02:43:44.304Z,1.11
2022-11-13T02:44:44.277Z,1.11
2022-11-13T02:45:44.276Z,1.08
2022-11-13T02:46:44.255Z,1.09
2022-11-13T02:47:44.237Z,1.05
2022-11-13T02:48:44.237Z,1.04
2022-11-13T02:49:44.215Z,0.91
2022-11-13T02:50:44.214Z,0.93
2022-11-13T02:51:44.175Z,0.97
2022-11-13T02:52:44.197Z,0.96
2022-11-13T02:53:44.164Z,0.93
2022-11-13T02:54:44.156Z,0.94
2022-11-13T02:55:44.153Z,0.93
2022-11-13T02:56:44.114Z,0.94
2022-11-13T02:57:44.117Z,0.93
2022-11-13T02:58:44.104Z,0.94
2022-11-13T02:59:44.072Z,0.91
2022-11-13T03:00:44.078Z,0.84
2022-11-13T03:01:44.101Z,0.84
2022-11-13T03:02:44.052Z,0.83
2022-11-13T03:03:59.517Z,0.79
2022-11-13T03:05:10.961Z,0.72
2022-11-13T03:05:45.013Z,0.69
2022-11-13T03:06:44.078Z,0.66
2022-11-13T03:07:43.971Z,0.62
2022-11-13T03:08:43.970Z,0.53
2022-11-13T03:09:43.951Z,0.53
2022-11-13T03:10:43.959Z,0.50
2022-11-13T03:11:43.931Z,0.51
2022-11-13T03:12:43.910Z,0.53
2022-11-13T03:13:43.909Z,0.53
2022-11-13T03:14:43.880Z,0.53
2022-11-13T03:15:43.900Z,0.51
2022-11-13T03:16:43.858Z,0.50
2022-11-13T03:17:43.865Z,0.47
2022-11-13T03:18:43.839Z,0.49
2022-11-13T03:19:43.838Z,0.49
2022-11-13T03:20:43.839Z,0.49
2022-11-13T03:21:43.788Z,0.51
2022-11-13T03:22:43.786Z,0.47
2022-11-13T03:23:43.776Z,0.47
2022-11-13T03:24:43.757Z,0.47
2022-11-13T03:25:43.769Z,0.57
2022-11-13T03:26:43.727Z,0.57
2022-11-13T03:27:43.719Z,0.55
2022-11-13T03:28:43.696Z,0.57
2022-11-13T03:29:43.698Z,0.50
2022-11-13T03:30:43.804Z,0.44
2022-11-13T03:31:43.677Z,0.46
2022-11-13T03:32:43.647Z,0.39
2022-11-13T03:33:43.642Z,0.38
2022-11-13T03:34:43.627Z,0.38
2022-11-13T03:35:47.154Z,0.33
2022-11-13T03:36:43.614Z,0.33
2022-11-13T03:37:43.594Z,0.33
2022-11-13T03:38:43.603Z,0.33
2022-11-13T03:39:43.592Z,0.33
2022-11-13T03:40:43.583Z,0.29
2022-11-13T03:41:43.551Z,0.29
2022-11-13T03:42:43.533Z,0.28
2022-11-13T03:43:43.521Z,0.26
2022-11-13T03:44:43.512Z,0.21
2022-11-13T03:45:43.541Z,0.23
2022-11-13T03:46:43.533Z,0.21
2022-11-13T03:47:43.491Z,0.21
2022-11-13T03:48:43.450Z,0.21
2022-11-13T03:49:43.441Z,0.17
2022-11-13T03:50:45.552Z,0.14
2022-11-13T03:51:43.441Z,0.11
2022-11-13T03:52:43.410Z,0.10
2022-11-13T03:53:43.419Z,0.10
2022-11-13T03:54:43.371Z,0.07
2022-11-13T03:55:43.402Z,0.04
2022-11-13T03:56:43.388Z,0.03
2022-11-13T03:57:43.346Z,0.03
2022-11-13T03:58:48.452Z,0.00
2022-11-13T03:59:44.317Z,-0.03
2022-11-13T04:00:43.323Z,-0.05
2022-11-13T04:01:43.364Z,-0.04
2022-11-13T04:02:43.287Z,0.04
2022-11-13T04:03:43.267Z,0.15
2022-11-13T04:04:43.245Z,0.20
2022-11-13T04:05:43.266Z,0.21
2022-11-13T04:06:43.274Z,0.21
2022-11-13T04:07:43.240Z,0.18
2022-11-13T04:08:43.218Z,0.18
2022-11-13T04:09:43.184Z,0.13
2022-11-13T04:10:43.199Z,0.11
2022-11-13T04:11:43.161Z,0.10
2022-11-13T04:12:43.153Z,0.07
2022-11-13T04:13:43.165Z,0.02
2022-11-13T04:14:43.142Z,-0.03
2022-11-13T04:15:43.144Z,-0.04
2022-11-13T04:16:43.099Z,-0.07
2022-11-13T04:17:43.081Z,-0.07
2022-11-13T04:18:43.082Z,-0.07
2022-11-13T04:19:43.062Z,-0.08
2022-11-13T04:20:43.062Z,-0.11
2022-11-13T04:21:43.052Z,-0.14
2022-11-13T04:22:43.026Z,-0.15
2022-11-13T04:23:43.023Z,-0.21
2022-11-13T04:24:43.003Z,-0.28
2022-11-13T04:25:42.990Z,-0.28
2022-11-13T04:26:42.986Z,-0.31
2022-11-13T04:27:42.970Z,-0.26
2022-11-13T04:28:42.940Z,-0.15
2022-11-13T04:29:42.940Z,-0.11
2022-11-13T04:30:42.979Z,-0.14
2022-11-13T04:31:42.909Z,-0.14
2022-11-13T04:32:42.899Z,-0.15
2022-11-13T04:33:42.892Z,-0.16
2022-11-13T04:34:42.869Z,-0.18
2022-11-13T04:35:42.868Z,-0.19
2022-11-13T04:36:42.852Z,-0.19
2022-11-13T04:37:42.829Z,-0.22
2022-11-13T04:38:42.810Z,-0.22
2022-11-13T04:39:42.818Z,-0.21
2022-11-13T04:40:42.797Z,-0.14
2022-11-13T04:41:42.794Z,-0.08
2022-11-13T04:42:42.818Z,-0.05
2022-11-13T04:43:42.834Z,-0.04
2022-11-13T04:44:42.746Z,-0.04
2022-11-13T04:45:42.755Z,-0.07
2022-11-13T04:46:42.726Z,-0.16
2022-11-13T04:47:42.710Z,-0.15
2022-11-13T04:48:42.701Z,-0.04
2022-11-13T04:49:42.695Z,0.04
2022-11-13T04:50:42.684Z,0.08
2022-11-13T04:51:42.664Z,0.08
2022-11-13T04:52:42.686Z,0.07
2022-11-13T04:53:42.651Z,0.03
2022-11-13T04:54:42.615Z,0.00
2022-11-13T04:55:42.622Z,-0.01
2022-11-13T04:56:42.849Z,-0.04
2022-11-13T04:57:42.583Z,-0.08
2022-11-13T04:58:42.556Z,-0.18
2022-11-13T04:59:42.564Z,-0.23
2022-11-13T05:00:42.569Z,-0.26
2022-11-13T05:01:42.653Z,-0.18
2022-11-13T05:02:50.042Z,-0.15
2022-11-13T05:03:51.190Z,-0.15
2022-11-13T05:04:42.517Z,-0.16
2022-11-13T05:05:42.527Z,-0.21
2022-11-13T05:06:42.503Z,-0.18
2022-11-13T05:07:42.467Z,-0.16
2022-11-13T05:08:42.447Z,-0.19
2022-11-13T05:09:42.433Z,-0.21
2022-11-13T05:10:42.431Z,-0.25
2022-11-13T05:11:42.405Z,-0.28
2022-11-13T05:12:42.396Z,-0.34
2022-11-13T05:13:42.420Z,-0.40
2022-11-13T05:14:42.382Z,-0.43
2022-11-13T05:15:42.372Z,-0.42
2022-11-13T05:16:42.332Z,-0.43
2022-11-13T05:17:42.324Z,-0.42
2022-11-13T05:18:42.311Z,-0.44
2022-11-13T05:19:42.313Z,-0.49
2022-11-13T05:20:42.303Z,-0.54
2022-11-13T05:21:42.292Z,-0.55
2022-11-13T05:22:42.274Z,-0.60
2022-11-13T05:23:42.252Z,-0.57
2022-11-13T05:24:42.237Z,-0.55
2022-11-13T05:25:42.250Z,-0.54
2022-11-13T05:26:42.232Z,-0.55
2022-11-13T05:27:42.201Z,-0.55
2022-11-13T05:28:42.192Z,-0.57
2022-11-13T05:29:42.190Z,-0.60
2022-11-13T05:30:42.180Z,-0.61
2022-11-13T05:31:42.163Z,-0.60
2022-11-13T05:32:42.143Z,-0.51
2022-11-13T05:33:42.153Z,-0.34
2022-11-13T05:34:42.112Z,-0.26
2022-11-13T05:35:42.107Z,-0.19
2022-11-13T05:36:42.087Z,-0.19
2022-11-13T05:37:42.078Z,-0.19
2022-11-13T05:38:42.066Z,-0.23
2022-11-13T05:39:42.049Z,-0.22
2022-11-13T05:40:42.059Z,-0.22
2022-11-13T05:41:42.031Z,-0.25
2022-11-13T05:42:42.014Z,-0.25
2022-11-13T05:43:42.022Z,-0.28
2022-11-13T05:44:41.985Z,-0.34
2022-11-13T05:45:41.990Z,-0.36
2022-11-13T05:46:41.967Z,-0.36
2022-11-13T05:47:41.952Z,-0.29
2022-11-13T05:48:41.946Z,-0.33
2022-11-13T05:49:41.954Z,-0.29
2022-11-13T05:50:41.955Z,-0.31
2022-11-13T05:51:41.915Z,-0.34
2022-11-13T05:52:41.884Z,-0.33
2022-11-13T05:53:41.874Z,-0.37
2022-11-13T05:54:41.864Z,-0.36
2022-11-13T05:55:41.873Z,-0.36
2022-11-13T05:56:41.843Z,-0.29
2022-11-13T05:57:41.872Z,-0.21
2022-11-13T05:58:41.861Z,-0.18
2022-11-13T05:59:41.841Z,-0.11
2022-11-13T06:00:41.791Z,-0.05
2022-11-13T06:01:41.806Z,0.07
2022-11-13T06:02:41.768Z,0.18
2022-11-13T06:03:41.752Z,0.20
2022-11-13T06:04:41.729Z,0.23
2022-11-13T06:05:41.772Z,0.23
2022-11-13T06:06:41.768Z,0.20
2022-11-13T06:07:41.721Z,0.17
2022-11-13T06:08:41.807Z,0.18
2022-11-13T06:09:41.679Z,0.18
2022-11-13T06:10:41.668Z,0.20
2022-11-13T06:11:41.656Z,0.17
2022-11-13T06:12:41.631Z,0.18
2022-11-13T06:13:41.618Z,0.17
2022-11-13T06:14:41.601Z,0.15
2022-11-13T06:15:41.609Z,0.15
2022-11-13T06:16:41.579Z,0.14
2022-11-13T06:17:41.587Z,0.15
2022-11-13T06:18:41.558Z,0.13
2022-11-13T06:19:41.558Z,0.13
2022-11-13T06:20:41.576Z,0.11
2022-11-13T06:21:41.558Z,0.10
2022-11-13T06:22:41.518Z,0.08
2022-11-13T06:23:41.504Z,0.10
2022-11-13T06:24:41.493Z,0.11
2022-11-13T06:25:41.522Z,0.10
2022-11-13T06:26:41.461Z,0.10
2022-11-13T06:27:41.447Z,0.07
2022-11-13T06:28:41.446Z,0.04
2022-11-13T06:29:41.424Z,0.02
2022-11-13T06:30:41.423Z,0.03
2022-11-13T06:31:41.404Z,0.03
2022-11-13T06:32:41.367Z,0.10
2022-11-13T06:33:41.374Z,0.15
2022-11-13T06:34:41.353Z,0.26
2022-11-13T06:35:41.363Z,0.32
2022-11-13T06:36:41.341Z,0.39
2022-11-13T06:37:41.322Z,0.42
2022-11-13T06:38:41.336Z,0.44
2022-11-13T06:39:41.283Z,0.42
2022-11-13T06:40:41.300Z,0.41
2022-11-13T06:41:41.282Z,0.39
2022-11-13T06:42:41.251Z,0.46
2022-11-13T06:43:41.250Z,0.50
2022-11-13T06:44:41.220Z,0.50
2022-11-13T06:45:41.239Z,0.50
2022-11-13T06:46:41.193Z,0.51
2022-11-13T06:47:41.190Z,0.49
2022-11-13T06:48:41.179Z,0.49
2022-11-13T06:49:41.171Z,0.53
2022-11-13T06:50:45.703Z,0.57
2022-11-13T06:51:42.136Z,0.58
2022-11-13T06:52:41.128Z,0.58
2022-11-13T06:53:41.129Z,0.58
2022-11-13T06:54:41.098Z,0.58
2022-11-13T06:55:41.099Z,0.58
2022-11-13T06:56:41.069Z,0.60
2022-11-13T06:57:41.068Z,0.61
2022-11-13T06:58:41.047Z,0.61
2022-11-13T06:59:41.036Z,0.65
2022-11-13T07:00:41.256Z,0.66
2022-11-13T07:01:41.059Z,0.70
2022-11-13T07:02:40.997Z,0.72
2022-11-13T07:03:40.977Z,0.73
2022-11-13T07:04:40.965Z,0.75
2022-11-13T07:05:40.984Z,0.75
2022-11-13T07:06:40.997Z,0.78
2022-11-13T07:07:40.951Z,0.83
2022-11-13T07:08:40.913Z,0.84
2022-11-13T07:09:40.905Z,0.87
2022-11-13T07:10:40.904Z,0.91
2022-11-13T07:11:40.905Z,0.93
2022-11-13T07:12:40.873Z,0.97
2022-11-13T07:13:40.865Z,1.00
2022-11-13T07:14:40.845Z,1.04
2022-11-13T07:15:40.844Z,1.05
2022-11-13T07:17:07.450Z,1.08
2022-11-13T07:17:41.812Z,1.09
2022-11-13T07:18:40.795Z,1.15
2022-11-13T07:19:40.784Z,1.18
2022-11-13T07:20:40.801Z,1.24
2022-11-13T07:21:40.743Z,1.29
2022-11-13T07:22:40.745Z,1.32
2022-11-13T07:23:40.734Z,1.36
2022-11-13T07:24:40.721Z,1.44
2022-11-13T07:25:40.712Z,1.47
2022-11-13T07:26:40.691Z,1.51
2022-11-13T07:27:40.671Z,1.54
2022-11-13T07:28:40.666Z,1.59
2022-11-13T07:29:40.641Z,1.62
2022-11-13T07:30:40.663Z,1.66
2022-11-13T07:31:40.633Z,1.70
2022-11-13T07:32:40.618Z,1.77
2022-11-13T07:33:40.589Z,1.81
2022-11-13T07:34:40.587Z,1.86
2022-11-13T07:35:40.572Z,1.87
2022-11-13T07:36:40.551Z,1.93
2022-11-13T07:37:40.550Z,1.99
2022-11-13T07:38:40.549Z,2.02
2022-11-13T07:39:40.527Z,2.05
2022-11-13T07:40:40.559Z,2.07
2022-11-13T07:41:40.510Z,2.12
2022-11-13T07:42:40.485Z,2.18
2022-11-13T07:43:40.465Z,2.18
2022-11-13T07:44:53.971Z,2.24
2022-11-13T07:45:41.457Z,2.28
2022-11-13T07:46:40.437Z,2.31
2022-11-13T07:47:40.428Z,2.34
2022-11-13T07:48:40.397Z,2.34
2022-11-13T07:49:40.405Z,2.35
2022-11-13T07:50:40.435Z,2.34
2022-11-13T07:51:40.376Z,2.36
2022-11-13T07:52:40.364Z,2.38
2022-11-13T07:53:40.336Z,2.39
2022-11-13T07:54:40.345Z,2.41
2022-11-13T07:55:40.333Z,2.45
2022-11-13T07:56:40.324Z,2.45
2022-11-13T07:57:40.294Z,2.46
2022-11-13T07:58:40.285Z,2.48
2022-11-13T07:59:40.255Z,2.53
2022-11-13T08:00:40.333Z,2.53
2022-11-13T08:01:40.247Z,2.57
2022-11-13T08:02:40.231Z,2.60
2022-11-13T08:03:40.214Z,2.59
2022-11-13T08:04:40.212Z,2.60
2022-11-13T08:05:40.234Z,2.61
2022-11-13T08:06:40.250Z,2.64
2022-11-13T08:07:40.160Z,2.67
2022-11-13T08:08:40.144Z,2.69
2022-11-13T08:09:40.132Z,2.71
2022-11-13T08:10:40.145Z,2.71
2022-11-13T08:11:40.104Z,2.71
2022-11-13T08:12:40.101Z,2.67
2022-11-13T08:13:40.081Z,2.71
2022-11-13T08:14:40.075Z,2.71
2022-11-13T08:15:40.080Z,2.71
2022-11-13T08:16:40.044Z,2.72
2022-11-13T08:17:40.042Z,2.71
2022-11-13T08:18:40.043Z,2.66
2022-11-13T08:19:40.011Z,2.66
2022-11-13T08:20:40.022Z,2.63
2022-11-13T08:21:39.987Z,2.57
2022-11-13T08:22:39.978Z,2.61
2022-11-13T08:23:39.959Z,2.64
2022-11-13T08:24:40.027Z,2.71
2022-11-13T08:25:39.949Z,2.71
2022-11-13T08:26:39.927Z,2.74
2022-11-13T08:27:39.899Z,2.77
2022-11-13T08:28:39.947Z,2.79
2022-11-13T08:29:39.868Z,2.84
2022-11-13T08:30:39.885Z,2.85
2022-11-13T08:31:39.859Z,2.87
2022-11-13T08:32:39.853Z,2.84
2022-11-13T08:33:39.819Z,2.82
2022-11-13T08:34:39.818Z,2.90
2022-11-13T08:35:39.807Z,2.96
2022-11-13T08:36:39.794Z,3.02
2022-11-13T08:37:39.766Z,3.06
2022-11-13T08:38:39.760Z,3.15
2022-11-13T08:39:39.760Z,3.18
2022-11-13T08:40:39.779Z,3.21
2022-11-13T08:41:39.725Z,3.23
2022-11-13T08:42:39.746Z,3.24
2022-11-13T08:43:39.686Z,3.26
2022-11-13T08:44:39.690Z,3.29
2022-11-13T08:45:39.694Z,3.32
2022-11-13T08:46:39.664Z,3.40
2022-11-13T08:47:39.654Z,3.43
2022-11-13T08:48:39.633Z,3.52
2022-11-13T08:49:39.652Z,3.51
2022-11-13T08:50:39.622Z,3.54
2022-11-13T08:51:39.597Z,3.57
2022-11-13T08:52:39.594Z,3.61
2022-11-13T08:53:39.593Z,3.69
2022-11-13T08:54:39.552Z,3.76
2022-11-13T08:55:39.563Z,3.83
2022-11-13T08:56:39.565Z,3.88
2022-11-13T08:57:39.784Z,3.94
2022-11-13T08:58:39.522Z,4.02
2022-11-13T08:59:39.499Z,4.09
2022-11-13T09:00:39.510Z,4.16
2022-11-13T09:01:39.468Z,4.24
2022-11-13T09:02:39.481Z,4.34
2022-11-13T09:03:39.506Z,4.40
2022-11-13T09:04:39.515Z,4.45
2022-11-13T09:05:39.455Z,4.51
2022-11-13T09:06:39.468Z,4.59
2022-11-13T09:07:39.427Z,4.67
2022-11-13T09:08:39.410Z,4.75
2022-11-13T09:09:39.367Z,4.85
2022-11-13T09:10:39.398Z,4.91
2022-11-13T09:11:39.349Z,5.03
2022-11-13T09:12:39.346Z,5.10
2022-11-13T09:13:43.990Z,5.21
2022-11-13T09:14:40.301Z,5.30
2022-11-13T09:15:39.320Z,5.38
2022-11-13T09:16:39.378Z,5.48
2022-11-13T09:17:39.329Z,5.58
2022-11-13T09:18:39.291Z,5.67
2022-11-13T09:19:39.220Z,5.79
2022-11-13T09:20:39.217Z,5.91
2022-11-13T09:21:39.306Z,6.00
2022-11-13T09:22:39.221Z,6.11
2022-11-13T09:23:39.168Z,6.15
2022-11-13T09:24:39.159Z,6.17
2022-11-13T09:25:39.149Z,6.18
2022-11-13T09:26:39.166Z,6.22
2022-11-13T09:27:39.129Z,6.33
2022-11-13T09:28:39.135Z,6.38
2022-11-13T09:29:39.123Z,6.44
2022-11-13T09:30:39.127Z,6.52
2022-11-13T09:31:39.078Z,6.56
2022-11-13T09:32:39.075Z,6.58
2022-11-13T09:33:39.065Z,6.59
2022-11-13T09:34:39.041Z,6.66
2022-11-13T09:35:39.054Z,6.70
2022-11-13T09:36:39.025Z,6.76
2022-11-13T09:37:38.985Z,6.79
2022-11-13T09:38:38.996Z,6.89
2022-11-13T09:39:38.969Z,6.94
2022-11-13T09:40:38.954Z,6.99
2022-11-13T09:41:38.971Z,6.99
2022-11-13T09:42:38.945Z,7.06
2022-11-13T09:43:38.928Z,7.09
2022-11-13T09:44:38.925Z,7.10
2022-11-13T09:45:38.895Z,7.05
2022-11-13T09:46:38.907Z,7.07
2022-11-13T09:47:38.898Z,7.10
2022-11-13T09:48:38.875Z,7.09
2022-11-13T09:49:38.888Z,7.12
2022-11-13T09:50:38.833Z,7.16
2022-11-13T09:51:38.830Z,7.20
2022-11-13T09:52:38.820Z,7.21
2022-11-13T09:53:38.813Z,7.20
2022-11-13T09:54:38.773Z,7.24
2022-11-13T09:55:38.753Z,7.39
2022-11-13T09:56:38.782Z,7.49
2022-11-13T09:57:38.732Z,7.42
2022-11-13T09:58:38.732Z,7.58
2022-11-13T09:59:38.721Z,7.60
2022-11-13T10:00:38.819Z,7.82
2022-11-13T10:01:38.701Z,7.80
2022-11-13T10:02:38.673Z,7.87
2022-11-13T10:03:59.838Z,8.01
2022-11-13T10:04:39.655Z,8.01
2022-11-13T10:05:38.632Z,8.16
2022-11-13T10:06:38.652Z,8.28
2022-11-13T10:07:38.589Z,8.41
2022-11-13T10:08:38.600Z,8.71
2022-11-13T10:09:38.622Z,8.70
2022-11-13T10:10:38.561Z,8.86
2022-11-13T10:11:38.578Z,8.86
2022-11-13T10:12:38.572Z,8.86
2022-11-13T10:13:38.551Z,8.86
2022-11-13T10:14:38.517Z,8.91
2022-11-13T10:15:38.488Z,8.84
2022-11-13T10:16:38.509Z,8.86
2022-11-13T10:17:38.489Z,8.74
2022-11-13T10:18:38.507Z,8.83
2022-11-13T10:19:38.536Z,8.84
2022-11-13T10:20:38.509Z,8.95
2022-11-13T10:21:38.478Z,9.11
2022-11-13T10:22:38.397Z,9.39
2022-11-13T10:23:38.396Z,9.39
2022-11-13T10:24:38.378Z,9.40
2022-11-13T10:25:38.355Z,9.29
2022-11-13T10:26:38.398Z,9.28
2022-11-13T10:27:38.398Z,9.26
2022-11-13T10:28:53.811Z,9.29
2022-11-13T10:29:40.735Z,9.29
2022-11-13T10:30:38.318Z,9.35
2022-11-13T10:31:38.297Z,9.35
2022-11-13T10:32:38.277Z,9.50
2022-11-13T10:33:38.274Z,9.58
2022-11-13T10:34:38.247Z,9.56
2022-11-13T10:35:38.235Z,9.42
2022-11-13T10:36:38.242Z,9.46
2022-11-13T10:37:38.207Z,9.60
2022-11-13T10:38:38.213Z,9.61
2022-11-13T10:39:38.197Z,9.74
2022-11-13T10:40:38.190Z,9.68
2022-11-13T10:41:38.246Z,9.61
2022-11-13T10:42:38.153Z,9.61
2022-11-13T10:43:38.128Z,9.57
2022-11-13T10:44:38.127Z,9.42
2022-11-13T10:45:38.176Z,9.40
2022-11-13T10:46:38.214Z,9.31
2022-11-13T10:48:02.444Z,9.01
2022-11-13T10:48:39.067Z,8.99
2022-11-13T10:49:38.036Z,8.91
2022-11-13T10:50:38.042Z,8.92
2022-11-13T10:51:38.033Z,8.83
2022-11-13T10:52:38.017Z,8.83
2022-11-13T10:53:37.993Z,8.99
2022-11-13T10:54:37.985Z,8.99
2022-11-13T10:55:37.966Z,8.99
2022-11-13T10:56:37.966Z,8.89
2022-11-13T10:57:37.944Z,8.87
2022-11-13T10:58:37.954Z,8.80
2022-11-13T10:59:37.916Z,8.77
2022-11-13T11:00:37.903Z,8.73
2022-11-13T11:01:37.984Z,8.66
2022-11-13T11:02:37.954Z,8.65
2022-11-13T11:03:37.864Z,8.63
2022-11-13T11:04:37.879Z,8.52
2022-11-13T11:05:37.857Z,8.50
2022-11-13T11:07:18.294Z,8.52
2022-11-13T11:07:38.883Z,8.53
2022-11-13T11:08:37.813Z,8.47
2022-11-13T11:09:37.794Z,8.41
2022-11-13T11:10:37.803Z,8.41
2022-11-13T11:11:37.823Z,8.37
2022-11-13T11:12:37.761Z,8.33
2022-11-13T11:13:37.734Z,8.34
2022-11-13T11:14:37.716Z,8.47
2022-11-13T11:15:37.682Z,8.59
2022-11-13T11:16:37.707Z,8.73
2022-11-13T11:17:37.663Z,8.73
2022-11-13T11:18:37.690Z,8.80
2022-11-13T11:19:37.666Z,8.81
2022-11-13T11:20:37.637Z,8.76
2022-11-13T11:21:37.646Z,8.77
2022-11-13T11:22:37.592Z,8.87
2022-11-13T11:23:37.585Z,8.94
2022-11-13T11:24:37.572Z,8.92
2022-11-13T11:25:37.562Z,8.99
2022-11-13T11:26:37.568Z,9.04
2022-11-13T11:27:37.542Z,9.02
2022-11-13T11:28:37.520Z,8.98
2022-11-13T11:29:37.512Z,8.98
2022-11-13T11:30:37.506Z,8.89
2022-11-13T11:31:37.504Z,8.87
2022-11-13T11:32:37.477Z,8.83
2022-11-13T11:33:37.453Z,8.86
2022-11-13T11:34:37.431Z,8.84
2022-11-13T11:35:37.435Z,8.81
2022-11-13T11:36:37.420Z,8.81
2022-11-13T11:37:37.402Z,8.81
2022-11-13T11:38:37.387Z,8.74
2022-11-13T11:39:37.431Z,8.71
2022-11-13T11:40:37.364Z,8.59
2022-11-13T11:41:37.380Z,8.62
2022-11-13T11:42:37.339Z,8.58
2022-11-13T11:43:37.325Z,8.56
2022-11-13T11:44:37.318Z,8.55
2022-11-13T11:45:37.298Z,8.58
2022-11-13T11:46:37.302Z,8.68
2022-11-13T11:47:37.269Z,8.71
2022-11-13T11:48:37.290Z,8.80
2022-11-13T11:49:37.256Z,8.94
2022-11-13T11:50:37.238Z,8.91
2022-11-13T11:51:37.459Z,8.91
2022-11-13T11:52:37.188Z,8.81
2022-11-13T11:53:37.220Z,8.74
2022-11-13T11:54:37.170Z,8.71
2022-11-13T11:55:37.167Z,8.68
2022-11-13T11:56:37.209Z,8.66
2022-11-13T11:57:37.129Z,8.68
2022-11-13T11:58:37.136Z,8.77
2022-11-13T11:59:37.099Z,8.76
2022-11-13T12:00:37.097Z,8.79
2022-11-13T12:01:37.089Z,8.84
2022-11-13T12:02:37.077Z,8.84
2022-11-13T12:03:37.087Z,8.84
2022-11-13T12:04:37.119Z,8.77
2022-11-13T12:05:37.121Z,8.77
2022-11-13T12:06:37.166Z,8.70
2022-11-13T12:07:37.008Z,8.61
2022-11-13T12:08:36.976Z,8.56
2022-11-13T12:09:36.966Z,8.48
2022-11-13T12:10:36.947Z,8.45
2022-11-13T12:11:36.969Z,8.47
2022-11-13T12:12:36.936Z,8.43
2022-11-13T12:13:36.937Z,8.41
2022-11-13T12:14:36.895Z,8.36
2022-11-13T12:15:36.895Z,8.36
2022-11-13T12:16:36.905Z,8.37
2022-11-13T12:17:36.856Z,8.36
2022-11-13T12:18:36.855Z,8.30
2022-11-13T12:19:36.839Z,8.26
2022-11-13T12:20:36.831Z,8.26
2022-11-13T12:21:36.841Z,8.25
2022-11-13T12:22:36.793Z,8.19
2022-11-13T12:23:36.783Z,8.20
2022-11-13T12:24:36.764Z,8.15
2022-11-13T12:25:36.753Z,8.07
2022-11-13T12:26:36.753Z,8.04
2022-11-13T12:27:36.725Z,7.98
2022-11-13T12:28:40.830Z,7.97
2022-11-13T12:29:36.705Z,7.93
2022-11-13T12:30:36.714Z,7.87
2022-11-13T12:31:36.802Z,7.83
2022-11-13T12:32:36.664Z,7.80
2022-11-13T12:33:36.653Z,7.82
2022-11-13T12:34:36.638Z,7.82
2022-11-13T12:35:36.632Z,7.85
2022-11-13T12:36:36.623Z,7.85
2022-11-13T12:37:36.605Z,7.86
2022-11-13T12:38:36.591Z,7.86
2022-11-13T12:39:36.574Z,7.87
2022-11-13T12:40:41.216Z,7.87
2022-11-13T12:41:37.570Z,7.86
2022-11-13T12:42:36.532Z,7.86
2022-11-13T12:43:36.524Z,7.83
2022-11-13T12:44:36.503Z,7.90
2022-11-13T12:45:36.502Z,7.89
2022-11-13T12:46:36.490Z,7.93
2022-11-13T12:47:36.479Z,7.92
2022-11-13T12:48:36.453Z,7.97
2022-11-13T12:49:36.450Z,7.95
2022-11-13T12:50:36.430Z,7.95
2022-11-13T12:51:36.435Z,7.90
2022-11-13T12:52:36.399Z,7.89
2022-11-13T12:53:36.399Z,7.90
2022-11-13T12:54:36.372Z,7.90
2022-11-13T12:55:36.368Z,7.87
2022-11-13T12:56:36.360Z,7.87
2022-11-13T12:57:36.343Z,7.86
2022-11-13T12:58:36.320Z,7.93
2022-11-13T12:59:36.471Z,7.93
2022-11-13T13:00:36.297Z,7.87
2022-11-13T13:01:36.349Z,7.87
2022-11-13T13:02:36.271Z,7.85
2022-11-13T13:03:36.277Z,7.85
2022-11-13T13:04:36.246Z,7.83
2022-11-13T13:05:36.238Z,7.86
2022-11-13T13:06:36.219Z,7.85
2022-11-13T13:07:36.224Z,7.87
2022-11-13T13:08:36.235Z,7.86
2022-11-13T13:09:36.185Z,7.86
2022-11-13T13:10:36.165Z,7.87
2022-11-13T13:11:36.157Z,7.89
2022-11-13T13:12:36.158Z,7.89
2022-11-13T13:13:36.140Z,7.86
2022-11-13T13:14:36.118Z,7.87
2022-11-13T13:15:36.108Z,7.87